Time;durP1;ratioP1;P1;durP2;ratioP2;P2;SDS_P1;SDS_P2;PMS_P1;PMS_P2;Temp;Humidity;BMP_temperature;BMP_pressure;BME280_temperature;BME280_humidity;BME280_pressure;Samples;Min_cycle;Max_cycle;Signal;HPM_P1;HPM_P2
2023/08/27 00:03:27;;;;;;;5.65;4.38;;;;;;;;;;10375105;28;20030;-65
2023/08/27 00:08:28;;;;;;;4.53;4.10;;;;;;;;;;10374996;28;20116;-66
2023/08/27 00:13:28;;;;;;;4.97;4.55;;;;;;;;;;10374814;28;20412;-65
2023/08/27 00:18:29;;;;;;;4.50;4.10;;;;;;;;;;10374488;28;20096;-66
2023/08/27 00:23:29;;;;;;;4.73;4.20;;;;;;;;;;10374672;28;20997;-66
2023/08/27 00:28:29;;;;;;;6.43;4.63;;;;;;;;;;10374537;28;20030;-66
2023/08/27 00:33:30;;;;;;;4.97;4.47;;;;;;;;;;10374531;28;20446;-66
2023/08/27 00:38:30;;;;;;;4.40;4.03;;;;;;;;;;10373527;28;20073;-65
2023/08/27 00:43:31;;;;;;;4.53;4.13;;;;;;;;;;10373740;28;20107;-66
2023/08/27 00:48:31;;;;;;;4.67;4.27;;;;;;;;;;10373510;28;20036;-65
2023/08/27 00:53:32;;;;;;;6.60;4.50;;;;;;;;;;10373410;28;20026;-65
2023/08/27 00:58:32;;;;;;;4.95;4.50;;;;;;;;;;10371784;28;20029;-65
2023/08/27 01:03:33;;;;;;;5.67;5.03;;;;;;;;;;10371758;28;20121;-65
2023/08/27 01:08:35;;;;;;;4.75;4.35;;;;;;;;;;10372761;28;20439;-65
2023/08/27 01:13:47;;;;;;;4.47;4.07;;;;;;;;;;10371465;28;20033;-66
2023/08/27 01:18:49;;;;;;;5.00;4.60;;;;;;;;;;10372357;28;20037;-66
2023/08/27 01:23:50;;;;;;;5.30;4.78;;;;;;;;;;10372340;28;20401;-65
2023/08/27 01:29:02;;;;;;;4.93;4.53;;;;;;;;;;10371925;28;20030;-65
2023/08/27 01:34:05;;;;;;;5.22;4.72;;;;;;;;;;10370465;28;20036;-65
2023/08/27 01:39:07;;;;;;;4.80;4.40;;;;;;;;;;10371508;28;20136;-66
2023/08/27 01:44:07;;;;;;;6.72;4.95;;;;;;;;;;10371302;28;20362;-65
2023/08/27 01:49:07;;;;;;;5.40;4.90;;;;;;;;;;10371750;28;20029;-65
2023/08/27 01:54:08;;;;;;;5.10;4.60;;;;;;;;;;10370869;28;20045;-66
2023/08/27 01:59:08;;;;;;;4.85;4.45;;;;;;;;;;10370831;28;20041;-66
2023/08/27 02:04:09;;;;;;;4.77;4.37;;;;;;;;;;10371072;28;20060;-65
2023/08/27 02:09:10;;;;;;;4.95;4.55;;;;;;;;;;10370230;28;20049;-66
2023/08/27 02:14:10;;;;;;;5.82;4.80;;;;;;;;;;10370062;28;20030;-65
2023/08/27 02:19:11;;;;;;;4.82;4.32;;;;;;;;;;10370524;28;20030;-65
2023/08/27 02:24:11;;;;;;;5.03;4.53;;;;;;;;;;10369854;28;20029;-65
2023/08/27 02:29:12;;;;;;;5.03;4.60;;;;;;;;;;10370341;28;20032;-66
2023/08/27 02:34:12;;;;;;;5.22;4.38;;;;;;;;;;10369441;28;20087;-65
2023/08/27 02:39:12;;;;;;;5.90;4.50;;;;;;;;;;10369332;28;20049;-65
2023/08/27 02:44:13;;;;;;;4.90;4.40;;;;;;;;;;10369787;28;20074;-65
2023/08/27 02:49:13;;;;;;;5.03;4.60;;;;;;;;;;10369129;28;20048;-65
2023/08/27 02:54:14;;;;;;;4.80;4.32;;;;;;;;;;10369331;28;20029;-65
2023/08/27 02:59:14;;;;;;;4.40;4.05;;;;;;;;;;10369443;28;20442;-65
2023/08/27 03:04:15;;;;;;;4.73;4.33;;;;;;;;;;10368628;28;20424;-66
2023/08/27 03:09:15;;;;;;;4.60;4.20;;;;;;;;;;10368616;28;20109;-65
2023/08/27 03:14:15;;;;;;;4.63;4.23;;;;;;;;;;10368853;28;20472;-65
2023/08/27 03:19:16;;;;;;;4.47;4.07;;;;;;;;;;10367607;28;20439;-65
2023/08/27 03:24:16;;;;;;;4.80;4.40;;;;;;;;;;10368165;28;20030;-66
2023/08/27 03:29:16;;;;;;;4.87;4.27;;;;;;;;;;10368079;28;20022;-65
2023/08/27 03:34:17;;;;;;;4.50;4.10;;;;;;;;;;10367890;28;20034;-65
2023/08/27 03:39:17;;;;;;;4.53;4.13;;;;;;;;;;10367880;28;20058;-65
2023/08/27 03:44:18;;;;;;;4.40;4.00;;;;;;;;;;10367747;28;20030;-65
2023/08/27 03:49:18;;;;;;;4.80;4.40;;;;;;;;;;10366438;28;20129;-65
2023/08/27 03:54:19;;;;;;;5.18;4.68;;;;;;;;;;10367494;28;20022;-65
2023/08/27 03:59:19;;;;;;;4.80;4.35;;;;;;;;;;10367369;28;20048;-65
2023/08/27 04:04:19;;;;;;;4.10;3.70;;;;;;;;;;10367305;28;20123;-65
2023/08/27 04:09:20;;;;;;;4.67;4.27;;;;;;;;;;10367807;28;20525;-65
2023/08/27 04:14:21;;;;;;;4.45;4.05;;;;;;;;;;10367569;28;20489;-65
2023/08/27 04:19:21;;;;;;;4.70;4.30;;;;;;;;;;10367601;28;20026;-65
2023/08/27 04:24:22;;;;;;;4.30;4.00;;;;;;;;;;10366951;28;20429;-65
2023/08/27 04:29:22;;;;;;;4.47;4.07;;;;;;;;;;10366836;28;20138;-65
2023/08/27 04:34:23;;;;;;;4.60;4.20;;;;;;;;;;10371972;28;20022;-65
2023/08/27 04:39:23;;;;;;;4.53;4.13;;;;;;;;;;10374018;28;20503;-65
2023/08/27 04:44:25;;;;;;;4.33;3.97;;;;;;;;;;10373787;28;20507;-65
2023/08/27 04:49:26;;;;;;;4.40;4.00;;;;;;;;;;10373480;28;20804;-66
2023/08/27 04:54:26;;;;;;;4.53;4.13;;;;;;;;;;10373272;28;20033;-65
2023/08/27 04:59:27;;;;;;;4.10;3.80;;;;;;;;;;10373195;28;20432;-65
2023/08/27 05:04:30;;;;;;;4.33;3.93;;;;;;;;;;10372958;28;20117;-65
2023/08/27 05:09:31;;;;;;;4.30;3.90;;;;;;;;;;10371917;28;20026;-64
2023/08/27 05:14:31;;;;;;;4.00;3.70;;;;;;;;;;10372545;28;20030;-65
2023/08/27 05:19:32;;;;;;;4.60;4.20;;;;;;;;;;10371391;28;20448;-65
2023/08/27 05:24:32;;;;;;;4.60;4.20;;;;;;;;;;10372158;28;20029;-65
2023/08/27 05:29:33;;;;;;;4.77;4.00;;;;;;;;;;10371776;28;20026;-65
2023/08/27 05:34:33;;;;;;;4.47;4.07;;;;;;;;;;10383809;23;20437;-62
2023/08/27 05:39:33;;;;;;;4.07;3.67;;;;;;;;;;10371438;28;20177;-62
2023/08/27 05:44:34;;;;;;;4.60;4.20;;;;;;;;;;10369933;28;20064;-62
2023/08/27 05:49:34;;;;;;;4.23;3.83;;;;;;;;;;10371163;28;20030;-59
2023/08/27 05:54:34;;;;;;;4.80;4.40;;;;;;;;;;10370900;28;20037;-59
2023/08/27 05:59:36;;;;;;;4.20;3.90;;;;;;;;;;10371185;28;20382;-59
2023/08/27 06:04:36;;;;;;;4.47;4.07;;;;;;;;;;10370558;28;20121;-60
2023/08/27 06:09:37;;;;;;;4.33;3.90;;;;;;;;;;10370415;28;20030;-60
2023/08/27 06:14:37;;;;;;;4.77;4.30;;;;;;;;;;10370752;28;20109;-60
2023/08/27 06:19:37;;;;;;;4.63;4.23;;;;;;;;;;10370228;28;20021;-60
2023/08/27 06:24:38;;;;;;;4.13;3.83;;;;;;;;;;10369939;28;20026;-60
2023/08/27 06:29:38;;;;;;;4.47;4.07;;;;;;;;;;10369892;28;20436;-60
2023/08/27 06:34:39;;;;;;;4.17;3.77;;;;;;;;;;10369757;28;20084;-60
2023/08/27 06:39:39;;;;;;;4.50;4.10;;;;;;;;;;10369474;28;20092;-60
2023/08/27 06:44:39;;;;;;;4.20;3.83;;;;;;;;;;10368241;28;20030;-60
2023/08/27 06:49:40;;;;;;;5.73;4.10;;;;;;;;;;10367961;28;20462;-60
2023/08/27 06:54:40;;;;;;;4.43;4.13;;;;;;;;;;10367275;28;20036;-59
2023/08/27 06:59:41;;;;;;;4.67;4.27;;;;;;;;;;10368542;28;20037;-60
2023/08/27 07:04:41;;;;;;;4.67;4.27;;;;;;;;;;10368511;28;20038;-60
2023/08/27 07:09:42;;;;;;;4.03;3.73;;;;;;;;;;10368567;28;20018;-59
2023/08/27 07:14:42;;;;;;;4.93;4.30;;;;;;;;;;10368627;28;20022;-60
2023/08/27 07:19:43;;;;;;;4.57;4.17;;;;;;;;;;10368306;28;20064;-59
2023/08/27 07:24:43;;;;;;;4.83;4.33;;;;;;;;;;10368232;28;20096;-59
2023/08/27 07:29:43;;;;;;;3.83;3.50;;;;;;;;;;10368335;28;20037;-59
2023/08/27 07:34:46;;;;;;;4.90;4.40;;;;;;;;;;10366922;28;20034;-60
2023/08/27 07:39:46;;;;;;;4.50;4.10;;;;;;;;;;10367406;28;20053;-59
2023/08/27 07:44:47;;;;;;;4.70;4.30;;;;;;;;;;10368147;28;20057;-59
2023/08/27 07:49:47;;;;;;;4.97;4.55;;;;;;;;;;10367825;28;20537;-59
2023/08/27 07:54:48;;;;;;;4.63;4.23;;;;;;;;;;10367394;28;20037;-59
2023/08/27 07:59:49;;;;;;;5.50;4.63;;;;;;;;;;10367563;28;20547;-59
2023/08/27 08:04:49;;;;;;;4.93;4.50;;;;;;;;;;10367753;28;20032;-59
2023/08/27 08:09:49;;;;;;;5.03;4.53;;;;;;;;;;10375250;28;20516;-59
2023/08/27 08:14:50;;;;;;;4.83;4.43;;;;;;;;;;10374827;28;20463;-59
2023/08/27 08:19:51;;;;;;;6.00;4.67;;;;;;;;;;10374714;28;20030;-59
2023/08/27 08:24:52;;;;;;;6.63;5.15;;;;;;;;;;10374547;28;20045;-59
2023/08/27 08:29:53;;;;;;;5.53;5.03;;;;;;;;;;10374599;28;20036;-59
2023/08/27 08:34:54;;;;;;;5.72;5.22;;;;;;;;;;10374126;28;20049;-59
2023/08/27 08:39:54;;;;;;;6.72;5.35;;;;;;;;;;10373771;28;20029;-59
2023/08/27 08:45:10;;;;;;;5.30;4.80;;;;;;;;;;10374351;28;20076;-59
2023/08/27 08:50:14;;;;;;;5.40;4.80;;;;;;;;;;10372531;28;20497;-59
2023/08/27 08:55:16;;;;;;;5.55;5.05;;;;;;;;;;10374108;28;20091;-59
2023/08/27 09:00:16;;;;;;;6.70;5.03;;;;;;;;;;10372995;28;20268;-59
2023/08/27 09:05:18;;;;;;;5.60;5.10;;;;;;;;;;10371611;28;20049;-59
2023/08/27 09:10:19;;;;;;;6.22;5.63;;;;;;;;;;10372917;28;20029;-59
2023/08/27 09:15:20;;;;;;;5.72;5.22;;;;;;;;;;10372864;28;20112;-59
2023/08/27 09:20:20;;;;;;;5.23;4.73;;;;;;;;;;10371323;28;20482;-59
2023/08/27 09:25:21;;;;;;;6.43;5.70;;;;;;;;;;10372296;28;20123;-59
2023/08/27 09:30:22;;;;;;;5.90;5.25;;;;;;;;;;10372218;28;20494;-59
2023/08/27 09:35:23;;;;;;;6.13;4.60;;;;;;;;;;10371593;28;20046;-59
2023/08/27 09:40:24;;;;;;;4.75;4.35;;;;;;;;;;10370594;28;20040;-59
2023/08/27 09:45:24;;;;;;;5.37;4.87;;;;;;;;;;10371496;28;20072;-59
2023/08/27 09:50:27;;;;;;;5.38;4.80;;;;;;;;;;10370063;28;20040;-59
2023/08/27 09:55:31;;;;;;;6.35;5.25;;;;;;;;;;10371553;28;20038;-59
2023/08/27 10:00:33;;;;;;;5.63;5.13;;;;;;;;;;10370993;28;20026;-59
2023/08/27 10:05:34;;;;;;;7.47;5.32;;;;;;;;;;10371154;28;20049;-59
2023/08/27 10:10:36;;;;;;;7.95;5.18;;;;;;;;;;10371217;28;20124;-59
2023/08/27 10:15:36;;;;;;;5.55;4.97;;;;;;;;;;10370322;28;20529;-59
2023/08/27 10:20:38;;;;;;;6.07;5.03;;;;;;;;;;10369097;28;20049;-59
2023/08/27 10:25:40;;;;;;;4.70;4.30;;;;;;;;;;10369730;28;20030;-59
2023/08/27 10:30:40;;;;;;;5.30;4.68;;;;;;;;;;10370066;28;20025;-59
2023/08/27 10:35:41;;;;;;;5.65;5.15;;;;;;;;;;10369233;28;20050;-59
2023/08/27 10:40:44;;;;;;;5.57;5.07;;;;;;;;;;10368559;28;20026;-59
2023/08/27 10:45:44;;;;;;;5.72;5.22;;;;;;;;;;10363309;28;20029;-59
2023/08/27 10:50:51;;;;;;;5.97;5.38;;;;;;;;;;10368736;28;20080;-59
2023/08/27 10:55:52;;;;;;;10.02;5.57;;;;;;;;;;10369148;28;20049;-60
2023/08/27 11:01:03;;;;;;;6.95;5.20;;;;;;;;;;10351192;28;20030;-59
2023/08/27 11:06:13;;;;;;;7.72;5.55;;;;;;;;;;10368893;28;20106;-59
2023/08/27 11:11:14;;;;;;;5.90;5.40;;;;;;;;;;10368806;28;20101;-59
2023/08/27 11:16:15;;;;;;;5.60;5.10;;;;;;;;;;10367806;28;20038;-59
2023/08/27 11:21:24;;;;;;;5.78;5.28;;;;;;;;;;10368207;28;20442;-59
2023/08/27 11:26:25;;;;;;;5.55;5.05;;;;;;;;;;10367883;28;20034;-59
2023/08/27 11:31:27;;;;;;;5.00;4.57;;;;;;;;;;10366814;28;20097;-60
2023/08/27 11:36:27;;;;;;;6.60;4.82;;;;;;;;;;10367929;28;20050;-59
2023/08/27 11:41:38;;;;;;;5.15;4.65;;;;;;;;;;10369923;28;20034;-59
2023/08/27 11:46:41;;;;;;;6.55;5.45;;;;;;;;;;10376352;28;20026;-60
2023/08/27 11:51:41;;;;;;;4.78;4.38;;;;;;;;;;10376225;28;20117;-60
2023/08/27 11:56:41;;;;;;;5.47;5.00;;;;;;;;;;10375463;28;20592;-60
2023/08/27 12:01:42;;;;;;;5.13;4.73;;;;;;;;;;10375168;28;20030;-59
2023/08/27 12:06:52;;;;;;;6.80;5.57;;;;;;;;;;10373785;28;20026;-60
2023/08/27 12:11:53;;;;;;;5.00;4.60;;;;;;;;;;10374837;28;20101;-60
2023/08/27 12:16:54;;;;;;;6.03;4.93;;;;;;;;;;10374308;28;20469;-60
2023/08/27 12:21:58;;;;;;;5.35;4.85;;;;;;;;;;10374008;28;20087;-59
2023/08/27 12:27:03;;;;;;;4.90;4.50;;;;;;;;;;10374163;28;20076;-60
2023/08/27 12:32:08;;;;;;;5.78;5.25;;;;;;;;;;10374444;28;20041;-59
2023/08/27 12:37:09;;;;;;;6.18;5.18;;;;;;;;;;10373552;28;20049;-60
2023/08/27 12:42:11;;;;;;;5.38;4.90;;;;;;;;;;10373492;28;20025;-59
2023/08/27 12:47:12;;;;;;;5.30;4.80;;;;;;;;;;10373531;28;20030;-60
2023/08/27 12:52:13;;;;;;;5.18;4.68;;;;;;;;;;10373065;28;20029;-60
2023/08/27 12:57:13;;;;;;;5.03;4.63;;;;;;;;;;10373381;28;20042;-60
2023/08/27 13:02:15;;;;;;;5.40;4.90;;;;;;;;;;10373359;28;20109;-59
2023/08/27 13:07:15;;;;;;;5.97;5.03;;;;;;;;;;10372959;28;20040;-59
2023/08/27 13:12:15;;;;;;;5.57;5.03;;;;;;;;;;10371504;28;20382;-59
2023/08/27 13:17:16;;;;;;;5.00;4.60;;;;;;;;;;10371657;28;20033;-59
2023/08/27 13:22:16;;;;;;;5.03;4.57;;;;;;;;;;10372521;28;20109;-59
2023/08/27 13:27:16;;;;;;;5.47;4.43;;;;;;;;;;10371910;28;20057;-59
2023/08/27 13:32:17;;;;;;;5.60;5.10;;;;;;;;;;10371767;28;20033;-59
2023/08/27 13:37:17;;;;;;;5.40;4.90;;;;;;;;;;10371422;28;20101;-59
2023/08/27 13:42:17;;;;;;;4.97;4.53;;;;;;;;;;10371412;28;20034;-59
2023/08/27 13:47:18;;;;;;;5.30;4.57;;;;;;;;;;10371188;28;20052;-59
2023/08/27 13:52:18;;;;;;;5.43;5.00;;;;;;;;;;10371652;28;20119;-59
2023/08/27 13:57:19;;;;;;;4.80;4.40;;;;;;;;;;10370898;28;20038;-60
2023/08/27 14:02:19;;;;;;;4.83;4.40;;;;;;;;;;10370764;28;20030;-59
2023/08/27 14:07:20;;;;;;;4.68;4.28;;;;;;;;;;10370537;28;20102;-58
2023/08/27 14:12:20;;;;;;;4.93;4.47;;;;;;;;;;10370421;28;20029;-58
2023/08/27 14:17:22;;;;;;;4.30;3.90;;;;;;;;;;10370283;28;20596;-59
2023/08/27 14:22:25;;;;;;;5.25;4.53;;;;;;;;;;10370557;28;20082;-59
2023/08/27 14:27:26;;;;;;;4.55;4.15;;;;;;;;;;10370302;28;20101;-59
2023/08/27 14:32:26;;;;;;;4.70;4.30;;;;;;;;;;10369758;28;20500;-59
2023/08/27 14:37:26;;;;;;;4.80;4.40;;;;;;;;;;10369245;28;20050;-59
2023/08/27 14:42:27;;;;;;;5.03;4.63;;;;;;;;;;10369497;28;20108;-59
2023/08/27 14:47:27;;;;;;;4.57;4.17;;;;;;;;;;10369260;28;20041;-59
2023/08/27 14:52:27;;;;;;;4.70;4.30;;;;;;;;;;10369162;28;20177;-59
2023/08/27 14:57:28;;;;;;;4.73;4.33;;;;;;;;;;10368900;28;20038;-59
2023/08/27 15:02:28;;;;;;;4.60;4.20;;;;;;;;;;10368936;28;20080;-59
2023/08/27 15:07:28;;;;;;;6.17;4.40;;;;;;;;;;10368628;28;20026;-59
2023/08/27 15:12:29;;;;;;;4.67;4.27;;;;;;;;;;10369093;28;20025;-59
2023/08/27 15:17:30;;;;;;;4.50;4.10;;;;;;;;;;10368053;28;20363;-59
2023/08/27 15:22:30;;;;;;;4.97;4.57;;;;;;;;;;10368427;28;20025;-59
2023/08/27 15:27:30;;;;;;;4.73;4.33;;;;;;;;;;10368197;28;20026;-59
2023/08/27 15:32:32;;;;;;;4.93;4.50;;;;;;;;;;10368185;28;20030;-59
2023/08/27 15:37:32;;;;;;;4.78;4.32;;;;;;;;;;10367791;28;20053;-59
2023/08/27 15:42:33;;;;;;;4.30;4.00;;;;;;;;;;10367894;28;20030;-59
2023/08/27 15:47:34;;;;;;;4.50;4.10;;;;;;;;;;10368347;28;20025;-59
2023/08/27 15:52:35;;;;;;;4.35;4.05;;;;;;;;;;10368272;28;20033;-59
2023/08/27 15:57:35;;;;;;;4.53;4.10;;;;;;;;;;10367584;28;20022;-59
2023/08/27 16:02:35;;;;;;;4.77;4.37;;;;;;;;;;10367714;28;20493;-59
2023/08/27 16:07:36;;;;;;;4.10;3.80;;;;;;;;;;10367513;28;20038;-59
2023/08/27 16:12:36;;;;;;;4.77;4.37;;;;;;;;;;10367463;28;20026;-59
2023/08/27 16:17:36;;;;;;;4.43;4.03;;;;;;;;;;10367217;28;20029;-59
2023/08/27 16:22:37;;;;;;;4.80;4.40;;;;;;;;;;10367223;28;20030;-59
2023/08/27 16:27:38;;;;;;;4.97;4.57;;;;;;;;;;10369272;28;20033;-59
2023/08/27 16:32:39;;;;;;;4.32;4.00;;;;;;;;;;10373810;28;20026;-59
2023/08/27 16:37:39;;;;;;;4.60;4.20;;;;;;;;;;10373861;28;20369;-59
2023/08/27 16:42:40;;;;;;;4.13;3.80;;;;;;;;;;10374152;28;20030;-59
2023/08/27 16:47:42;;;;;;;4.25;3.95;;;;;;;;;;10373784;28;20067;-59
2023/08/27 16:52:42;;;;;;;5.03;4.53;;;;;;;;;;10372385;28;20053;-60
2023/08/27 16:57:43;;;;;;;4.27;3.97;;;;;;;;;;10373849;28;20525;-59
2023/08/27 17:02:43;;;;;;;4.50;4.10;;;;;;;;;;10373318;28;20030;-59
2023/08/27 17:07:43;;;;;;;4.27;3.97;;;;;;;;;;10373039;28;20022;-59
2023/08/27 17:12:45;;;;;;;4.83;4.40;;;;;;;;;;10373416;28;20413;-59
2023/08/27 17:17:45;;;;;;;4.03;3.72;;;;;;;;;;10373523;28;20113;-59
2023/08/27 17:22:46;;;;;;;4.27;3.67;;;;;;;;;;10371750;28;20103;-59
2023/08/27 17:27:46;;;;;;;4.00;3.70;;;;;;;;;;10372258;28;20158;-59
2023/08/27 17:32:47;;;;;;;4.28;3.97;;;;;;;;;;10372041;28;20022;-59
2023/08/27 17:37:47;;;;;;;4.23;3.93;;;;;;;;;;10371314;28;20054;-59
2023/08/27 17:42:47;;;;;;;4.50;4.10;;;;;;;;;;10371156;28;20036;-59
2023/08/27 17:48:07;;;;;;;4.43;4.03;;;;;;;;;;10371963;28;20114;-59
2023/08/27 17:53:07;;;;;;;5.47;4.97;;;;;;;;;;10371372;28;20089;-59
2023/08/27 17:58:08;;;;;;;4.50;4.10;;;;;;;;;;10371032;28;20437;-59
2023/08/27 18:03:08;;;;;;;4.80;4.40;;;;;;;;;;10370912;28;20021;-59
2023/08/27 18:08:08;;;;;;;4.60;4.20;;;;;;;;;;10370660;28;20393;-59
2023/08/27 18:13:09;;;;;;;4.90;4.50;;;;;;;;;;10370513;28;20034;-59
2023/08/27 18:18:09;;;;;;;4.60;4.20;;;;;;;;;;10370759;28;20034;-59
2023/08/27 18:23:10;;;;;;;4.32;4.03;;;;;;;;;;10370210;28;20621;-59
2023/08/27 18:28:10;;;;;;;4.67;4.27;;;;;;;;;;10368866;28;20366;-58
2023/08/27 18:33:11;;;;;;;5.03;3.80;;;;;;;;;;10370188;28;20109;-59
2023/08/27 18:38:11;;;;;;;4.47;4.07;;;;;;;;;;10369871;28;20050;-60
2023/08/27 18:43:11;;;;;;;5.60;5.03;;;;;;;;;;10369496;28;20033;-59
2023/08/27 18:48:12;;;;;;;4.67;4.27;;;;;;;;;;10369042;28;20185;-60
2023/08/27 18:53:12;;;;;;;4.10;3.80;;;;;;;;;;10368895;28;20025;-60
2023/08/27 18:58:12;;;;;;;3.80;3.50;;;;;;;;;;10368988;28;20032;-59
2023/08/27 19:03:13;;;;;;;4.57;4.18;;;;;;;;;;10368573;28;20037;-59
2023/08/27 19:08:13;;;;;;;4.50;4.10;;;;;;;;;;10367118;28;20030;-59
2023/08/27 19:13:14;;;;;;;4.33;3.93;;;;;;;;;;10367270;28;20034;-59
2023/08/27 19:18:14;;;;;;;4.00;3.70;;;;;;;;;;10368345;28;20029;-59
2023/08/27 19:23:15;;;;;;;4.60;4.20;;;;;;;;;;10367897;28;20029;-59
2023/08/27 19:28:15;;;;;;;4.57;4.17;;;;;;;;;;10367890;28;20057;-59
2023/08/27 19:33:15;;;;;;;4.70;4.30;;;;;;;;;;10368556;28;20026;-59
2023/08/27 19:38:16;;;;;;;4.20;3.80;;;;;;;;;;10366538;28;20049;-59
2023/08/27 19:43:16;;;;;;;4.50;4.10;;;;;;;;;;10367482;28;20508;-59
2023/08/27 19:48:17;;;;;;;4.60;4.20;;;;;;;;;;10367801;28;20385;-59
2023/08/27 19:53:17;;;;;;;4.65;4.25;;;;;;;;;;10367914;28;20488;-59
2023/08/27 19:58:17;;;;;;;4.50;4.10;;;;;;;;;;10367547;28;20029;-59
2023/08/27 20:03:18;;;;;;;4.10;3.80;;;;;;;;;;10370949;28;20469;-59
2023/08/27 20:08:18;;;;;;;4.43;4.03;;;;;;;;;;10375069;28;20026;-59
2023/08/27 20:13:19;;;;;;;4.37;3.97;;;;;;;;;;10375471;28;20482;-59
2023/08/27 20:18:19;;;;;;;4.70;4.03;;;;;;;;;;10374723;28;20037;-59
2023/08/27 20:23:21;;;;;;;4.43;4.00;;;;;;;;;;10374646;28;20644;-59
2023/08/27 20:28:22;;;;;;;4.65;4.25;;;;;;;;;;10374897;28;20022;-59
2023/08/27 20:33:23;;;;;;;4.70;4.30;;;;;;;;;;10374343;28;20451;-59
2023/08/27 20:38:23;;;;;;;4.90;4.40;;;;;;;;;;10373864;28;20073;-58
2023/08/27 20:43:24;;;;;;;8.60;6.70;;;;;;;;;;10373878;28;20299;-59
2023/08/27 20:48:24;;;;;;;12.00;7.97;;;;;;;;;;10372227;28;20454;-59
2023/08/27 20:53:24;;;;;;;14.60;8.63;;;;;;;;;;10372963;28;20524;-59
2023/08/27 20:58:25;;;;;;;15.43;9.30;;;;;;;;;;10373106;28;20125;-59
2023/08/27 21:03:25;;;;;;;13.53;9.13;;;;;;;;;;10373234;28;20038;-59
2023/08/27 21:08:25;;;;;;;16.43;9.40;;;;;;;;;;10373803;28;20121;-59
2023/08/27 21:13:26;;;;;;;16.07;9.63;;;;;;;;;;10371810;28;20030;-59
2023/08/27 21:18:26;;;;;;;15.87;10.00;;;;;;;;;;10372924;28;20169;-59
2023/08/27 21:23:27;;;;;;;12.97;8.97;;;;;;;;;;10372867;28;20526;-59
2023/08/27 21:28:27;;;;;;;14.70;9.80;;;;;;;;;;10372308;28;20045;-59
2023/08/27 21:33:27;;;;;;;16.70;9.97;;;;;;;;;;10371118;28;20091;-59
2023/08/27 21:38:28;;;;;;;13.50;9.87;;;;;;;;;;10370647;28;20080;-59
2023/08/27 21:43:28;;;;;;;15.90;9.43;;;;;;;;;;10371594;28;20045;-59
2023/08/27 21:48:28;;;;;;;14.57;10.27;;;;;;;;;;10371168;28;20040;-59
2023/08/27 21:53:29;;;;;;;15.47;11.13;;;;;;;;;;10371305;28;20048;-58
2023/08/27 21:58:30;;;;;;;16.08;10.32;;;;;;;;;;10370306;28;20040;-59
2023/08/27 22:03:30;;;;;;;25.70;10.77;;;;;;;;;;10371302;28;20493;-59
2023/08/27 22:08:31;;;;;;;26.43;10.53;;;;;;;;;;10370676;28;20116;-59
2023/08/27 22:13:31;;;;;;;19.10;10.70;;;;;;;;;;10371102;28;20033;-59
2023/08/27 22:18:32;;;;;;;16.13;9.93;;;;;;;;;;10370733;28;20033;-59
2023/08/27 22:23:32;;;;;;;13.10;9.93;;;;;;;;;;10370155;28;20026;-59
2023/08/27 22:28:33;;;;;;;16.53;9.87;;;;;;;;;;10369580;28;20492;-59
2023/08/27 22:33:33;;;;;;;11.00;9.10;;;;;;;;;;10371520;28;20058;-59
2023/08/27 22:38:34;;;;;;;12.63;10.03;;;;;;;;;;10369314;28;20065;-59
2023/08/27 22:43:34;;;;;;;15.70;9.90;;;;;;;;;;10369989;28;20761;-59
2023/08/27 22:48:34;;;;;;;14.63;9.77;;;;;;;;;;10369265;28;20466;-59
2023/08/27 22:53:35;;;;;;;16.97;9.33;;;;;;;;;;10369081;28;20025;-59
2023/08/27 22:58:35;;;;;;;11.23;9.60;;;;;;;;;;10368877;28;20044;-60
2023/08/27 23:03:36;;;;;;;12.57;9.23;;;;;;;;;;10369326;28;20029;-59
2023/08/27 23:08:36;;;;;;;13.05;8.57;;;;;;;;;;10369109;28;20022;-59
2023/08/27 23:13:37;;;;;;;11.23;8.20;;;;;;;;;;10368614;28;20072;-59
2023/08/27 23:18:38;;;;;;;14.47;9.13;;;;;;;;;;10368868;28;20033;-59
2023/08/27 23:23:39;;;;;;;12.23;8.30;;;;;;;;;;10368853;28;20055;-59
2023/08/27 23:28:39;;;;;;;12.57;8.73;;;;;;;;;;10368221;28;20026;-59
2023/08/27 23:33:40;;;;;;;10.00;8.25;;;;;;;;;;10368176;28;20053;-59
2023/08/27 23:38:40;;;;;;;9.43;7.83;;;;;;;;;;10372042;28;20046;-59
2023/08/27 23:43:40;;;;;;;9.97;7.97;;;;;;;;;;10376429;28;20109;-59
2023/08/27 23:48:41;;;;;;;11.93;7.67;;;;;;;;;;10376165;28;20030;-59
2023/08/27 23:53:41;;;;;;;11.33;8.30;;;;;;;;;;10376561;28;20022;-59
2023/08/27 23:58:41;;;;;;;12.70;7.70;;;;;;;;;;10375828;28;20072;-59
